Time;durP1;ratioP1;P1;durP2;ratioP2;P2;SDS_P1;SDS_P2;PMS_P1;PMS_P2;Temp;Humidity;BMP_temperature;BMP_pressure;BME280_temperature;BME280_humidity;BME280_pressure;Samples;Min_cycle;Max_cycle;Signal;HPM_P1;HPM_P2
2022/08/02 00:01:26;;;;;;;;;;;;;;;15.74;60.10;101493.16;4927693;28;123363;-82
2022/08/02 00:03:54;;;;;;;;;;;;;;;15.74;60.06;101501.44;4939596;28;119843;-83
2022/08/02 00:06:19;;;;;;;;;;;;;;;15.72;60.07;101501.91;4951238;28;119696;-83
2022/08/02 00:08:45;;;;;;;;;;;;;;;15.72;60.05;101503.91;4946199;28;120426;-82
2022/08/02 00:11:11;;;;;;;;;;;;;;;15.70;60.37;101501.59;4937354;28;120088;-83
2022/08/02 00:13:36;;;;;;;;;;;;;;;15.70;60.69;101500.84;4953970;28;119539;-83
2022/08/02 00:16:02;;;;;;;;;;;;;;;15.69;60.45;101502.84;4939022;28;119934;-84
2022/08/02 00:18:27;;;;;;;;;;;;;;;15.67;60.09;101504.53;4943249;28;121955;-82
2022/08/02 00:20:53;;;;;;;;;;;;;;;15.62;60.47;101506.72;4932180;28;122965;-83
2022/08/02 00:23:18;;;;;;;;;;;;;;;15.58;60.29;101503.31;4931466;28;119813;-83
2022/08/02 00:25:44;;;;;;;;;;;;;;;15.56;60.38;101503.00;4947702;28;121160;-83
2022/08/02 00:28:12;;;;;;;;;;;;;;;15.54;60.43;101504.69;4929498;28;123036;-84
2022/08/02 00:30:38;;;;;;;;;;;;;;;15.52;60.34;101502.41;4944359;28;119987;-83
2022/08/02 00:33:04;;;;;;;;;;;;;;;15.52;60.85;101501.63;4941147;28;119580;-83
2022/08/02 00:35:30;;;;;;;;;;;;;;;15.49;60.61;101510.84;4931663;28;121267;-84
2022/08/02 00:37:56;;;;;;;;;;;;;;;15.47;60.69;101511.31;4943544;28;120270;-83
2022/08/02 00:40:22;;;;;;;;;;;;;;;15.46;60.68;101509.78;4949940;28;122914;-82
2022/08/02 00:42:59;;;;;;;;;;;;;;;15.46;60.59;101503.50;4946059;28;120027;-83
2022/08/02 00:45:25;;;;;;;;;;;;;;;15.45;60.72;101510.25;4956670;28;121784;-84
2022/08/02 00:47:50;;;;;;;;;;;;;;;15.43;60.36;101515.47;4942109;28;123682;-84
2022/08/02 00:50:16;;;;;;;;;;;;;;;15.39;60.38;101506.59;4946291;28;120532;-83
2022/08/02 00:52:41;;;;;;;;;;;;;;;15.35;60.52;101499.19;4948307;28;119568;-83
2022/08/02 00:55:07;;;;;;;;;;;;;;;15.34;60.37;101507.94;4937491;28;122114;-84
2022/08/02 00:57:33;;;;;;;;;;;;;;;15.30;60.22;101505.34;4945401;28;122602;-83
2022/08/02 00:59:58;;;;;;;;;;;;;;;15.27;60.30;101502.75;4943153;28;120086;-83
2022/08/02 01:02:24;;;;;;;;;;;;;;;15.24;60.29;101496.16;4943445;28;119706;-83
2022/08/02 01:04:49;;;;;;;;;;;;;;;15.21;60.51;101494.31;4936244;28;119528;-83
2022/08/02 01:07:18;;;;;;;;;;;;;;;15.21;60.57;101493.56;4936233;28;123542;-82
2022/08/02 01:09:44;;;;;;;;;;;;;;;15.18;61.21;101492.47;4942266;28;120445;-84
2022/08/02 01:12:09;;;;;;;;;;;;;;;15.20;60.67;101503.84;4918277;28;121236;-84
2022/08/02 01:14:39;;;;;;;;;;;;;;;15.16;60.80;101500.47;4941286;28;119987;-82
2022/08/02 01:17:07;;;;;;;;;;;;;;;15.15;60.93;101504.47;4955047;28;120136;-83
2022/08/02 01:19:47;;;;;;;;;;;;;;;15.14;60.86;101505.69;4950863;28;120400;-83
2022/08/02 01:22:28;;;;;;;;;;;;;;;15.11;61.20;101501.06;4967572;28;119604;-82
2022/08/02 01:24:59;;;;;;;;;;;;;;;15.09;61.20;101505.53;4951356;28;119475;-83
2022/08/02 01:27:25;;;;;;;;;;;;;;;15.05;61.10;101508.44;4931253;28;122834;-84
2022/08/02 01:29:52;;;;;;;;;;;;;;;15.01;60.88;101508.59;4932181;28;120120;-85
2022/08/02 01:32:22;;;;;;;;;;;;;;;14.99;60.60;101504.78;4946772;28;121670;-84
2022/08/02 01:34:47;;;;;;;;;;;;;;;14.95;60.77;101509.69;4947162;28;122869;-84
2022/08/02 01:37:19;;;;;;;;;;;;;;;14.92;60.68;101502.31;4956286;28;119699;-83
2022/08/02 01:39:46;;;;;;;;;;;;;;;14.90;60.92;101502.00;4951056;28;119647;-83
2022/08/02 01:42:12;;;;;;;;;;;;;;;14.87;61.05;101508.44;4932461;28;120031;-83
2022/08/02 01:44:39;;;;;;;;;;;;;;;14.86;60.92;101509.66;4932334;28;119499;-84
2022/08/02 01:47:08;;;;;;;;;;;;;;;14.86;61.05;101504.13;4928338;28;120931;-83
2022/08/02 01:49:35;;;;;;;;;;;;;;;14.86;61.11;101504.13;4930829;28;119510;-83
2022/08/02 01:52:20;;;;;;;;;;;;;;;14.85;61.24;101505.38;4949748;28;119467;-84
2022/08/02 01:54:48;;;;;;;;;;;;;;;14.85;61.42;101506.13;4936727;28;120418;-83
2022/08/02 01:57:15;;;;;;;;;;;;;;;14.83;61.70;101502.31;4933567;28;119679;-84
2022/08/02 01:59:41;;;;;;;;;;;;;;;14.83;61.68;101499.53;4950670;28;119672;-83
2022/08/02 02:02:07;;;;;;;;;;;;;;;14.82;61.76;101496.00;4936790;28;120298;-84
2022/08/02 02:04:34;;;;;;;;;;;;;;;14.79;61.82;101482.34;4934789;28;121502;-84
2022/08/02 02:07:23;;;;;;;;;;;;;;;14.74;61.32;101484.50;4925765;28;120509;-84
2022/08/02 02:09:49;;;;;;;;;;;;;;;14.70;61.74;101486.66;4951162;28;119661;-83
2022/08/02 02:12:15;;;;;;;;;;;;;;;14.65;61.59;101487.25;4951116;28;121278;-83
2022/08/02 02:14:42;;;;;;;;;;;;;;;14.62;61.70;101485.41;4949460;28;120380;-84
2022/08/02 02:17:09;;;;;;;;;;;;;;;14.59;61.91;101477.28;4948997;28;119760;-83
2022/08/02 02:19:35;;;;;;;;;;;;;;;14.56;61.59;101472.69;4946848;28;119404;-82
2022/08/02 02:22:01;;;;;;;;;;;;;;;14.53;61.53;101471.59;4943879;28;123269;-84
2022/08/02 02:24:46;;;;;;;;;;;;;;;14.50;61.93;101472.53;4923979;28;119910;-84
2022/08/02 02:27:13;;;;;;;;;;;;;;;14.47;61.85;101467.91;4949884;28;120047;-82
2022/08/02 02:29:43;;;;;;;;;;;;;;;14.45;61.95;101470.38;4935669;28;119610;-84
2022/08/02 02:32:09;;;;;;;;;;;;;;;14.43;61.84;101467.28;4948168;28;119745;-83
2022/08/02 02:34:37;;;;;;;;;;;;;;;14.41;61.99;101461.41;4930729;28;122040;-84
2022/08/02 02:37:05;;;;;;;;;;;;;;;14.38;62.04;101460.34;4948815;28;119977;-83
2022/08/02 02:39:32;;;;;;;;;;;;;;;14.39;62.45;101464.63;4950501;28;119670;-83
2022/08/02 02:42:00;;;;;;;;;;;;;;;14.40;62.49;101457.13;4934526;28;119880;-84
2022/08/02 02:44:27;;;;;;;;;;;;;;;14.40;62.60;101457.13;4947580;28;119360;-83
2022/08/02 02:46:53;;;;;;;;;;;;;;;14.40;62.89;101443.31;4949214;28;119388;-84
2022/08/02 02:49:20;;;;;;;;;;;;;;;14.41;62.71;101445.63;4944125;28;120156;-84
2022/08/02 02:51:46;;;;;;;;;;;;;;;14.41;62.67;101450.38;4940663;28;119446;-84
2022/08/02 02:54:15;;;;;;;;;;;;;;;14.42;62.45;101449.16;4951178;28;120060;-84
2022/08/02 02:56:41;;;;;;;;;;;;;;;14.43;62.43;101450.72;4958435;28;119546;-83
2022/08/02 02:59:07;;;;;;;;;;;;;;;14.45;62.55;101447.53;4943322;28;119916;-82
2022/08/02 03:01:33;;;;;;;;;;;;;;;14.45;62.95;101450.28;4932750;28;123127;-83
2022/08/02 03:04:00;;;;;;;;;;;;;;;14.46;62.51;101447.06;4950455;28;119612;-84
2022/08/02 03:06:26;;;;;;;;;;;;;;;14.47;62.80;101448.59;4946267;28;119490;-83
2022/08/02 03:08:54;;;;;;;;;;;;;;;14.48;62.90;101444.59;4936183;28;120244;-84
2022/08/02 03:11:20;;;;;;;;;;;;;;;14.50;62.65;101439.41;4932191;28;119699;-84
2022/08/02 03:13:45;;;;;;;;;;;;;;;14.52;62.85;101439.69;4931657;28;120296;-83
2022/08/02 03:16:11;;;;;;;;;;;;;;;14.55;62.93;101444.31;4935342;28;119800;-84
2022/08/02 03:18:38;;;;;;;;;;;;;;;14.56;62.88;101445.84;4949347;28;119587;-83
2022/08/02 03:21:23;;;;;;;;;;;;;;;14.59;62.93;101442.16;4945923;28;119994;-84
2022/08/02 03:23:48;;;;;;;;;;;;;;;14.62;62.88;101448.75;4943714;28;119785;-84
2022/08/02 03:26:41;;;;;;;;;;;;;;;14.64;62.77;101454.56;4929406;28;119767;-84
2022/08/02 03:29:07;;;;;;;;;;;;;;;14.66;62.37;101452.13;4942596;28;120205;-84
2022/08/02 03:31:33;;;;;;;;;;;;;;;14.67;62.97;101442.63;4933386;28;119864;-84
2022/08/02 03:33:59;;;;;;;;;;;;;;;14.68;62.64;101446.94;4934585;28;120254;-84
2022/08/02 03:36:53;;;;;;;;;;;;;;;14.67;62.71;101448.94;4941181;28;119566;-84
2022/08/02 03:39:19;;;;;;;;;;;;;;;14.67;63.04;101450.91;4954031;28;119691;-83
2022/08/02 03:41:45;;;;;;;;;;;;;;;14.65;62.75;101443.06;4953927;28;120717;-83
2022/08/02 03:44:12;;;;;;;;;;;;;;;14.63;63.06;101434.47;4951689;28;119438;-84
2022/08/02 03:46:38;;;;;;;;;;;;;;;14.63;62.59;101439.22;4944344;28;119688;-84
2022/08/02 03:49:05;;;;;;;;;;;;;;;14.60;63.20;101434.63;4952458;28;122704;-84
2022/08/02 03:51:31;;;;;;;;;;;;;;;14.57;62.92;101438.31;4956080;28;119772;-84
2022/08/02 03:53:56;;;;;;;;;;;;;;;14.52;63.04;101439.69;4944678;28;123617;-84
2022/08/02 03:56:22;;;;;;;;;;;;;;;14.49;62.54;101442.63;4927022;28;119879;-84
2022/08/02 03:58:47;;;;;;;;;;;;;;;14.48;62.65;101439.09;4953985;28;119628;-85
2022/08/02 04:01:13;;;;;;;;;;;;;;;14.44;62.82;101435.72;4949652;28;120027;-84
2022/08/02 04:03:38;;;;;;;;;;;;;;;14.42;62.77;101432.59;4934074;28;120342;-84
2022/08/02 04:06:04;;;;;;;;;;;;;;;14.41;62.49;101444.84;4943701;28;119753;-84
2022/08/02 04:08:29;;;;;;;;;;;;;;;14.40;62.61;101449.63;4946315;28;122418;-84
2022/08/02 04:11:30;;;;;;;;;;;;;;;14.39;62.37;101452.84;4921893;28;120006;-84
2022/08/02 04:13:56;;;;;;;;;;;;;;;14.39;62.68;101452.84;4951958;28;119522;-85
2022/08/02 04:16:22;;;;;;;;;;;;;;;14.40;62.73;101455.13;4941865;28;119986;-85
2022/08/02 04:18:50;;;;;;;;;;;;;;;14.43;62.49;101454.28;4953688;28;119852;-85
2022/08/02 04:21:18;;;;;;;;;;;;;;;14.49;62.97;101450.91;4951212;28;120096;-84
2022/08/02 04:23:45;;;;;;;;;;;;;;;14.55;62.61;101454.56;4947898;28;119749;-83
2022/08/02 04:26:11;;;;;;;;;;;;;;;14.65;62.82;101461.63;4919102;28;119490;-84
2022/08/02 04:28:40;;;;;;;;;;;;;;;14.74;62.80;101464.41;4931219;28;120314;-84
2022/08/02 04:31:06;;;;;;;;;;;;;;;14.83;62.83;101463.63;4923752;28;119569;-83
2022/08/02 04:33:33;;;;;;;;;;;;;;;14.90;62.74;101463.31;4931416;28;120224;-83
2022/08/02 04:35:58;;;;;;;;;;;;;;;14.94;62.51;101463.94;4940715;28;121005;-83
2022/08/02 04:38:24;;;;;;;;;;;;;;;14.97;62.61;101457.50;4950613;28;119859;-83
2022/08/02 04:40:51;;;;;;;;;;;;;;;15.02;62.73;101462.41;4945890;28;120029;-84
2022/08/02 04:43:16;;;;;;;;;;;;;;;15.04;62.80;101451.66;4932727;28;120163;-83
2022/08/02 04:45:43;;;;;;;;;;;;;;;15.05;62.77;101464.22;4933550;28;121713;-83
2022/08/02 04:48:08;;;;;;;;;;;;;;;15.08;62.97;101466.06;4933694;28;120197;-83
2022/08/02 04:50:34;;;;;;;;;;;;;;;15.12;62.51;101474.19;4953057;28;120978;-83
2022/08/02 04:53:00;;;;;;;;;;;;;;;15.17;62.73;101468.84;4952415;28;119670;-84
2022/08/02 04:55:27;;;;;;;;;;;;;;;15.18;62.67;101467.59;4938095;28;123106;-83
2022/08/02 04:57:53;;;;;;;;;;;;;;;15.20;62.71;101465.16;4955362;28;120110;-83
2022/08/02 05:00:19;;;;;;;;;;;;;;;15.21;62.53;101461.16;4952412;28;119906;-83
2022/08/02 05:02:44;;;;;;;;;;;;;;;15.24;62.88;101456.69;4951958;28;119767;-83
2022/08/02 05:05:10;;;;;;;;;;;;;;;15.26;62.98;101463.28;4942526;28;119688;-84
2022/08/02 05:07:35;;;;;;;;;;;;;;;15.27;62.87;101466.81;4949885;28;120365;-84
2022/08/02 05:10:01;;;;;;;;;;;;;;;15.33;63.34;101468.47;4946234;28;119638;-83
2022/08/02 05:12:26;;;;;;;;;;;;;;;15.41;63.28;101465.41;4944977;28;119644;-82
2022/08/02 05:14:52;;;;;;;;;;;;;;;15.51;63.17;101461.38;4933497;28;120096;-83
2022/08/02 05:17:17;;;;;;;;;;;;;;;15.61;63.08;101455.41;4954004;28;119809;-83
2022/08/02 05:19:43;;;;;;;;;;;;;;;15.72;62.98;101448.59;4949231;28;120302;-82
2022/08/02 05:22:08;;;;;;;;;;;;;;;15.81;62.98;101443.00;4946554;28;120646;-83
2022/08/02 05:24:34;;;;;;;;;;;;;;;15.88;62.83;101446.22;4947230;28;119967;-83
2022/08/02 05:26:59;;;;;;;;;;;;;;;15.97;62.88;101448.16;4933765;28;122806;-83
2022/08/02 05:29:25;;;;;;;;;;;;;;;16.04;62.96;101456.13;4944272;28;120345;-83
2022/08/02 05:31:50;;;;;;;;;;;;;;;16.12;62.75;101453.78;4934335;28;121702;-83
2022/08/02 05:34:16;;;;;;;;;;;;;;;16.19;62.84;101450.66;4951854;28;120493;-83
2022/08/02 05:36:41;;;;;;;;;;;;;;;16.25;62.54;101457.06;4946521;28;119799;-82
2022/08/02 05:39:08;;;;;;;;;;;;;;;16.33;62.92;101443.66;4951772;28;120058;-83
2022/08/02 05:41:34;;;;;;;;;;;;;;;16.42;62.69;101443.59;4945891;28;120340;-82
2022/08/02 05:43:59;;;;;;;;;;;;;;;16.49;62.63;101440.44;4933906;28;119679;-81
2022/08/02 05:46:25;;;;;;;;;;;;;;;16.55;62.68;101444.84;4949289;28;120145;-83
2022/08/02 05:48:50;;;;;;;;;;;;;;;16.61;62.79;101438.69;4951399;28;119725;-82
2022/08/02 05:51:37;;;;;;;;;;;;;;;16.63;62.36;101444.50;4950496;28;120296;-81
2022/08/02 05:54:19;;;;;;;;;;;;;;;16.67;62.65;101453.44;4946240;28;120498;-81
2022/08/02 05:56:46;;;;;;;;;;;;;;;16.72;62.56;101455.53;4932539;28;119651;-82
2022/08/02 05:59:32;;;;;;;;;;;;;;;16.78;62.70;101450.88;4931664;28;119611;-83
2022/08/02 06:02:01;;;;;;;;;;;;;;;16.92;62.86;101452.16;4935322;28;120463;-83
2022/08/02 06:04:48;;;;;;;;;;;;;;;17.02;62.86;101448.81;4946690;28;119698;-83
2022/08/02 06:07:17;;;;;;;;;;;;;;;17.11;62.87;101442.41;4935782;28;123268;-82
2022/08/02 06:09:43;;;;;;;;;;;;;;;17.22;62.89;101444.59;4950725;28;119900;-82
2022/08/02 06:12:11;;;;;;;;;;;;;;;17.32;62.52;101441.28;4951221;28;119721;-82
2022/08/02 06:15:15;;;;;;;;;;;;;;;17.45;62.62;101450.06;4927551;28;122274;-82
2022/08/02 06:17:41;;;;;;;;;;;;;;;17.55;62.57;101459.06;4913702;28;119525;-82
2022/08/02 06:20:07;;;;;;;;;;;;;;;17.63;62.39;101465.72;4912842;28;120012;-83
2022/08/02 06:22:33;;;;;;;;;;;;;;;17.71;62.41;101463.34;4927234;28;120106;-83
2022/08/02 06:25:28;;;;;;;;;;;;;;;17.79;62.22;101465.25;4909456;28;120304;-82
2022/08/02 06:27:53;;;;;;;;;;;;;;;17.85;62.20;101467.34;4893261;28;120273;-82
2022/08/02 06:30:19;;;;;;;;;;;;;;;17.91;62.08;101451.53;4925493;28;120137;-81
2022/08/02 06:32:47;;;;;;;;;;;;;;;17.93;61.58;101455.34;4911274;28;119688;-81
2022/08/02 06:35:13;;;;;;;;;;;;;;;17.92;61.50;101456.59;4912525;28;122608;-81
2022/08/02 06:38:04;;;;;;;;;;;;;;;17.93;61.54;101449.03;4913261;28;120231;-82
2022/08/02 06:41:05;;;;;;;;;;;;;;;17.96;61.73;101442.53;4880445;28;121962;-82
2022/08/02 06:43:40;;;;;;;;;;;;;;;18.01;61.57;101427.97;4849805;28;120547;-80
2022/08/02 06:46:06;;;;;;;;;;;;;;;18.03;61.42;101426.25;4928433;28;119546;-81
2022/08/02 06:48:34;;;;;;;;;;;;;;;18.04;61.32;101432.56;4953738;28;121811;-82
2022/08/02 06:51:03;;;;;;;;;;;;;;;18.06;61.10;101427.28;4949941;28;120084;-82
2022/08/02 06:53:28;;;;;;;;;;;;;;;18.13;61.26;101428.88;4945053;28;120076;-82
2022/08/02 06:55:54;;;;;;;;;;;;;;;18.14;60.86;101433.94;4949310;28;120867;-82
2022/08/02 06:58:19;;;;;;;;;;;;;;;18.17;60.98;101440.53;4951283;28;119800;-82
2022/08/02 07:00:46;;;;;;;;;;;;;;;18.24;61.06;101440.16;4949812;28;121334;-82
2022/08/02 07:03:11;;;;;;;;;;;;;;;18.29;60.96;101437.44;4917565;28;123425;-82
2022/08/02 07:05:37;;;;;;;;;;;;;;;18.35;60.68;101431.94;4917670;28;119799;-82
2022/08/02 07:08:05;;;;;;;;;;;;;;;18.39;60.65;101435.25;4930000;28;121475;-82
2022/08/02 07:10:31;;;;;;;;;;;;;;;18.46;60.46;101436.88;4953484;28;119772;-82
2022/08/02 07:12:56;;;;;;;;;;;;;;;18.51;60.54;101431.38;4952948;28;119814;-81
2022/08/02 07:15:22;;;;;;;;;;;;;;;18.56;60.13;101427.13;4946890;28;120531;-82
2022/08/02 07:17:47;;;;;;;;;;;;;;;18.64;60.33;101428.25;4934150;28;119951;-82
2022/08/02 07:20:13;;;;;;;;;;;;;;;18.68;60.02;101423.25;4934117;28;119589;-82
2022/08/02 07:22:42;;;;;;;;;;;;;;;18.74;59.98;101415.75;4916450;28;122777;-82
2022/08/02 07:25:08;;;;;;;;;;;;;;;18.81;59.91;101418.09;4933763;28;119862;-82
2022/08/02 07:27:34;;;;;;;;;;;;;;;18.89;60.14;101404.50;4952411;28;121589;-81
2022/08/02 07:30:00;;;;;;;;;;;;;;;18.97;60.03;101395.25;4971985;28;121902;-82
2022/08/02 07:32:28;;;;;;;;;;;;;;;19.06;59.80;101405.44;4920749;28;121447;-83
2022/08/02 07:34:53;;;;;;;;;;;;;;;19.14;59.40;101397.41;4947727;28;119877;-82
2022/08/02 07:37:34;;;;;;;;;;;;;;;19.16;58.73;101412.34;4932800;28;119824;-81
2022/08/02 07:40:00;;;;;;;;;;;;;;;19.23;59.09;101411.91;4962921;28;122443;-83
2022/08/02 07:42:27;;;;;;;;;;;;;;;19.32;58.97;101402.63;4953269;28;119985;-82
2022/08/02 07:44:53;;;;;;;;;;;;;;;19.42;58.90;101401.19;4948205;28;121076;-81
2022/08/02 07:47:19;;;;;;;;;;;;;;;19.50;58.31;101399.47;4917196;28;121448;-81
2022/08/02 07:49:44;;;;;;;;;;;;;;;19.59;58.23;101396.53;4948873;28;123012;-82
2022/08/02 07:52:09;;;;;;;;;;;;;;;19.71;58.04;101389.03;4965656;28;119897;-82
2022/08/02 07:54:35;;;;;;;;;;;;;;;19.95;57.58;101388.66;4943399;28;120525;-82
2022/08/02 07:57:03;;;;;;;6.68;2.00;;;;;;;20.21;57.63;101380.16;4952073;28;119996;-82
2022/08/02 07:59:29;;;;;;;;;;;;;;;20.65;56.80;101393.50;4952342;28;122879;-82
2022/08/02 08:02:17;;;;;;;8.10;2.30;;;;;;;20.90;56.21;101391.00;4950700;28;120025;-82
2022/08/02 08:04:42;;;;;;;6.43;2.20;;;;;;;21.12;55.31;101386.19;4951809;28;119862;-82
2022/08/02 08:07:10;;;;;;;9.27;2.40;;;;;;;21.23;54.87;101367.91;4949759;28;120464;-82
2022/08/02 08:09:40;;;;;;;9.73;2.65;;;;;;;21.51;54.02;101373.50;4948745;28;122106;-81
2022/08/02 08:12:10;;;;;;;10.70;2.53;;;;;;;21.68;53.06;101355.44;4946946;28;119950;-82
2022/08/02 08:14:38;;;;;;;7.65;2.28;;;;;;;21.81;53.30;101346.53;4954702;28;120115;-82
2022/08/02 08:17:05;;;;;;;8.82;2.03;;;;;;;22.14;53.59;101372.84;4950947;28;119706;-80
2022/08/02 08:19:31;;;;;;;;;;;;;;;22.39;53.50;101376.53;4935839;28;119700;-82
2022/08/02 08:21:59;;;;;;;;;;;;;;;22.60;52.57;101384.03;4942374;28;120272;-82
2022/08/02 08:24:28;;;;;;;;;;;;;;;22.77;52.03;101392.31;4947202;28;120191;-82
2022/08/02 08:26:54;;;;;;;;;;;;;;;22.92;51.67;101373.13;4951321;28;123216;-83
2022/08/02 08:29:20;;;;;;;;;;;;;;;23.06;51.42;101374.06;4938527;28;123758;-83
2022/08/02 08:31:46;;;;;;;;;;;;;;;23.15;50.91;101356.16;4949512;28;120150;-83
2022/08/02 08:34:12;;;;;;;;;;;;;;;23.27;51.27;101354.81;4932152;28;121868;-82
2022/08/02 08:36:37;;;;;;;;;;;;;;;23.40;50.76;101352.13;4918716;28;124275;-82
2022/08/02 08:39:06;;;;;;;;;;;;;;;23.50;50.71;101350.50;4932085;28;123010;-82
2022/08/02 08:41:31;;;;;;;;;;;;;;;23.54;50.29;101364.19;4918622;28;123484;-82
2022/08/02 08:43:58;;;;;;;;;;;;;;;23.60;49.41;101362.13;4952340;28;120896;-83
2022/08/02 08:46:27;;;;;;;;;;;;;;;23.68;49.94;101356.72;4937020;28;123044;-83
2022/08/02 08:48:57;;;;;;;;;;;;;;;23.79;49.38;101348.94;4931025;28;121274;-83
2022/08/02 08:51:23;;;;;;;;;;;;;;;23.88;49.37;101339.38;4915625;28;120407;-83
2022/08/02 08:53:52;;;;;;;;;;;;;;;23.98;48.67;101334.19;4926924;28;122658;-83
2022/08/02 08:56:19;;;;;;;;;;;;;;;24.12;48.79;101332.97;4931967;28;121095;-83
2022/08/02 08:58:46;;;;;;;;;;;;;;;24.31;49.41;101330.19;4946096;28;121742;-82
2022/08/02 09:01:13;;;;;;;;;;;;;;;24.52;49.78;101333.22;4923857;28;125565;-83
2022/08/02 09:03:38;;;;;;;;;;;;;;;24.74;49.66;101330.06;4923743;28;122061;-83
2022/08/02 09:06:04;;;;;;;;;;;;;;;24.91;48.55;101333.38;4940276;28;122029;-84
2022/08/02 09:08:30;;;;;;;;;;;;;;;25.03;47.77;101345.19;4943216;28;122245;-83
2022/08/02 09:10:56;;;;;;;;;;;;;;;25.06;46.99;101349.72;4940191;28;122736;-83
2022/08/02 09:13:23;;;;;;;;;;;;;;;25.07;47.24;101354.03;4935031;28;121779;-83
2022/08/02 09:15:53;;;;;;;;;;;;;;;25.04;46.55;101353.06;4943230;28;122248;-83
2022/08/02 09:18:18;;;;;;;;;;;;;;;25.00;46.91;101347.00;4947632;28;121823;-83
2022/08/02 09:20:51;;;;;;;;;;;;;;;25.03;46.66;101351.53;4946677;28;122578;-84
2022/08/02 09:23:46;;;;;;;;;;;;;;;25.07;46.66;101349.19;4935897;28;123892;-83
2022/08/02 09:26:14;;;;;;;;;;;;;;;25.11;46.25;101345.31;4943710;28;122779;-83
2022/08/02 09:28:40;;;;;;;;;;;;;;;25.13;46.46;101346.28;4946136;28;122577;-84
2022/08/02 09:31:13;;;;;;;;;;;;;;;25.19;46.30;101337.75;4926725;28;123204;-85
2022/08/02 09:33:39;;;;;;;;;;;;;;;25.25;46.72;101332.81;4948787;28;121894;-83
2022/08/02 09:36:15;;;;;;;;;;;;;;;25.27;45.16;101330.97;4946388;28;122077;-83
2022/08/02 09:38:51;;;;;;;;;;;;;;;25.24;45.12;101331.28;4950263;28;121727;-84
2022/08/02 09:41:25;;;;;;;;;;;;;;;25.21;44.63;101335.94;4948635;28;121936;-84
2022/08/02 09:43:51;;;;;;;;;;;;;;;25.20;44.87;101328.81;4919034;28;121770;-84
2022/08/02 09:46:28;;;;;;;;;;;;;;;25.18;44.88;101319.41;4923596;28;124415;-84
2022/08/02 09:48:59;;;;;;;;;;;;;;;25.16;43.82;101311.53;4946631;28;123187;-83
2022/08/02 09:51:45;;;;;;;;;;;;;;;25.16;43.75;101322.00;4946391;28;121742;-84
2022/08/02 09:54:16;;;;;;;;;;;;;;;25.18;44.26;101308.94;4945007;28;122696;-83
2022/08/02 09:56:45;;;;;;;;;;;;;;;25.19;43.96;101307.66;4926542;28;123619;-84
2022/08/02 09:59:11;;;;;;;;;;;;;;;25.19;43.86;101304.84;4944112;28;123710;-83
2022/08/02 10:01:37;;;;;;;;;;;;;;;25.23;43.93;101307.31;4964704;28;123711;-83
2022/08/02 10:04:04;;;;;;;;;;;;;;;25.24;43.31;101314.44;4967581;28;124974;-83
2022/08/02 10:06:30;;;;;;;;;;;;;;;25.25;42.81;101304.72;4938838;28;122451;-83
2022/08/02 10:08:56;;;;;;;;;;;;;;;25.21;42.16;101298.69;4921744;28;125138;-83
2022/08/02 10:11:22;;;;;;;;;;;;;;;25.19;42.51;101312.50;4925390;28;122539;-83
2022/08/02 10:13:49;;;;;;;;;;;;;;;25.23;43.07;101304.50;4944478;28;121828;-83
2022/08/02 10:16:18;;;;;;;;;;;;;;;25.28;42.77;101300.84;4944372;28;122233;-83
2022/08/02 10:18:44;;;;;;;;;;;;;;;25.34;42.87;101295.91;4961371;28;122141;-83
2022/08/02 10:21:14;;;;;;;;;;;;;;;25.38;42.40;101296.31;4945124;28;122116;-84
2022/08/02 10:23:41;;;;;;;;;;;;;;;25.42;42.27;101296.00;4941505;28;125540;-83
2022/08/02 10:26:13;;;;;;;;;;;;;;;25.42;42.08;101293.94;4947056;28;122224;-83
2022/08/02 10:28:38;;;;;;;;;;;;;;;25.44;41.25;101290.59;4944138;28;122807;-83
2022/08/02 10:31:08;;;;;;;;;;;;;;;25.47;41.78;101293.06;4958794;28;122408;-83
2022/08/02 10:33:35;;;;;;;;;;;;;;;25.51;41.64;101289.94;4942685;28;121916;-84
2022/08/02 10:36:01;;;;;;;;;;;;;;;25.50;41.92;101285.63;4941577;28;124192;-83
2022/08/02 10:38:27;;;;;;;;;;;;;;;25.48;41.75;101282.59;4921972;28;122739;-84
2022/08/02 10:40:53;;;;;;;;;;;;;;;25.44;41.23;101282.16;4943012;28;122372;-84
2022/08/02 10:43:31;;;;;;;;;;;;;;;25.39;40.93;101281.75;4942853;28;123645;-84
2022/08/02 10:46:15;;;;;;;;;;;;;;;25.36;40.93;101284.88;4944124;28;123361;-84
2022/08/02 10:49:00;;;;;;;;;;;;;;;25.34;40.89;101279.03;4959509;28;123605;-83
2022/08/02 10:51:45;;;;;;;;;;;;;;;25.34;41.27;101268.56;4956942;28;122502;-82
2022/08/02 10:54:16;;;;;;;;;;;;;;;25.36;41.83;101276.44;4944682;28;122087;-83
2022/08/02 10:56:46;;;;;;;;;;;;;;;25.37;41.46;101261.13;4944641;28;122209;-84
2022/08/02 10:59:25;;;;;;;;;;;;;;;25.37;40.84;101256.25;4950827;28;122340;-83
2022/08/02 11:01:50;;;;;;;;;;;;;;;25.36;40.93;101245.56;4944823;28;122668;-83
2022/08/02 11:04:16;;;;;;;;;;;;;;;25.34;40.63;101236.94;4945094;28;122897;-83
2022/08/02 11:07:01;;;;;;;;;;;;;;;25.34;41.19;101234.13;4947133;28;122326;-82
2022/08/02 11:09:31;;;;;;;;;;;;;;;25.36;41.26;101235.09;4923760;28;124342;-82
2022/08/02 11:12:02;;;;;;;;;;;;;;;25.42;41.37;101226.53;4947273;28;122843;-83
2022/08/02 11:14:27;;;;;;;;;;;;;;;25.45;41.53;101230.31;4964595;28;122275;-83
2022/08/02 11:16:56;;;;;;;;;;;;;;;25.48;41.59;101221.56;4950406;28;123244;-84
2022/08/02 11:19:25;;;;;;;;;;;;;;;25.53;40.90;101217.88;4945141;28;122141;-82
2022/08/02 11:22:05;;;;;;;;;;;;;;;25.54;41.11;101213.75;4944759;28;124088;-82
2022/08/02 11:24:31;;;;;;;;;;;;;;;25.58;41.21;101219.06;4946766;28;122693;-82
2022/08/02 11:27:16;;;;;;;;;;;;;;;25.58;40.29;101219.06;4942152;28;124379;-83
2022/08/02 11:29:43;;;;;;;;;;;;;;;25.56;40.89;101211.19;4960383;28;124395;-82
2022/08/02 11:32:16;;;;;;;;;;;;;;;25.58;40.27;101208.59;4948773;28;122821;-81
2022/08/02 11:34:44;;;;;;;;;;;;;;;25.57;40.64;101212.69;4942772;28;123942;-83
2022/08/02 11:37:26;;;;;;;;;;;;;;;25.57;40.24;101201.47;4930185;28;122451;-82
2022/08/02 11:39:51;;;;;;;;;;;;;;;25.57;40.29;101200.72;4944040;28;121940;-81
2022/08/02 11:42:17;;;;;;;;;;;;;;;25.61;40.71;101207.50;4958453;28;124138;-82
2022/08/02 11:44:42;;;;;;;;;;;;;;;25.66;40.99;101211.47;4945207;28;123130;-82
2022/08/02 11:47:08;;;;;;;;;;;;;;;25.69;40.64;101196.38;4960890;28;122289;-82
2022/08/02 11:49:48;;;;;;;;;;;;;;;25.76;41.15;101200.56;4964127;28;123640;-83
2022/08/02 11:52:13;;;;;;;;;;;;;;;25.86;41.30;101193.19;4958985;28;122316;-82
2022/08/02 11:54:40;;;;;;;;;;;;;;;25.90;41.01;101194.38;4952186;28;123354;-82
2022/08/02 11:57:13;;;;;;;;;;;;;;;25.91;40.40;101184.63;4943599;28;122615;-82
2022/08/02 11:59:45;;;;;;;;;;;;;;;25.93;40.39;101192.50;4961663;28;122434;-82
2022/08/02 12:02:11;;;;;;;;;;;;;;;25.98;40.31;101189.56;4940677;28;124601;-82
2022/08/02 12:04:37;;;;;;;;;;;;;;;26.02;40.59;101189.22;4938931;28;122689;-82
2022/08/02 12:07:03;;;;;;;;;;;;;;;26.07;40.72;101182.72;4946367;28;122367;-82
2022/08/02 12:09:30;;;;;;;;;;;;;;;26.13;40.38;101188.97;4948025;28;122360;-82
2022/08/02 12:11:56;;;;;;;;;;;;;;;26.18;40.64;101190.13;4945340;28;122304;-82
2022/08/02 12:14:25;;;;;;;;;;;;;;;26.24;39.68;101176.69;4948374;28;123390;-84
2022/08/02 12:19:41;;;;;;;;;;;;;;;26.33;40.14;101176.22;4945379;28;122595;-85
2022/08/02 12:22:06;;;;;;;;;;;;;;;26.39;39.92;101176.84;4963968;28;124284;-85
2022/08/02 12:24:32;;;;;;;;;;;;;;;26.48;40.33;101187.59;4927813;28;125504;-85
2022/08/02 12:26:58;;;;;;;;;;;;;;;26.54;39.57;101187.47;4940640;28;122361;-85
2022/08/02 12:29:37;;;;;;;;;;;;;;;26.58;39.84;101191.44;4934247;28;122074;-84
2022/08/02 12:32:03;;;;;;;;;;;;;;;26.61;39.70;101200.84;4953273;28;124000;-85
2022/08/02 12:34:29;;;;;;;;;;;;;;;26.63;39.60;101203.09;4930225;28;122036;-84
2022/08/02 12:37:13;;;;;;;;;;;;;;;26.57;39.54;101192.75;4935317;28;124335;-84